createdAt,value
2019-05-07T00:00:16.785Z,11.70
2019-05-07T00:06:16.781Z,13.20
2019-05-07T00:12:16.782Z,13.10
2019-05-07T00:18:16.810Z,13.40
2019-05-07T00:24:16.783Z,11.50
2019-05-07T00:30:16.761Z,12.00
2019-05-07T00:36:17.209Z,12.00
2019-05-07T00:42:16.774Z,13.20
2019-05-07T00:48:16.796Z,14.90
2019-05-07T00:54:16.782Z,15.90
2019-05-07T01:00:16.761Z,12.50
2019-05-07T01:06:16.807Z,20.40
2019-05-07T01:12:16.811Z,19.90
2019-05-07T01:18:16.799Z,18.80
2019-05-07T01:24:16.784Z,17.30
2019-05-07T01:30:16.824Z,18.80
2019-05-07T01:36:16.899Z,12.40
2019-05-07T01:42:16.823Z,13.20
2019-05-07T01:48:16.798Z,13.80
2019-05-07T01:54:16.911Z,14.40
2019-05-07T02:00:16.819Z,11.20
2019-05-07T02:06:16.834Z,11.80
2019-05-07T02:12:16.824Z,11.10
2019-05-07T02:18:16.802Z,12.90
2019-05-07T02:24:16.793Z,8.70
2019-05-07T02:30:16.798Z,11.20
2019-05-07T02:36:16.850Z,11.80
2019-05-07T02:42:16.850Z,12.40
2019-05-07T02:48:16.815Z,9.10
2019-05-07T02:54:16.891Z,10.00
2019-05-07T03:00:19.098Z,10.60
2019-05-07T03:06:16.938Z,9.60
2019-05-07T03:12:16.835Z,10.00
2019-05-07T03:18:18.990Z,8.60
2019-05-07T03:24:16.849Z,17.70
2019-05-07T03:30:17.495Z,15.40
2019-05-07T03:36:17.501Z,14.10
2019-05-07T03:42:16.844Z,10.70
2019-05-07T03:48:16.895Z,10.90
2019-05-07T03:54:16.853Z,11.00
2019-05-07T04:00:16.835Z,14.60
2019-05-07T04:06:17.861Z,10.10
2019-05-07T04:12:16.861Z,10.40
2019-05-07T04:18:16.860Z,13.60
2019-05-07T04:24:16.851Z,10.70
2019-05-07T04:30:17.931Z,9.80
2019-05-07T04:36:16.873Z,11.80
2019-05-07T04:42:16.864Z,13.60
2019-05-07T04:48:16.888Z,10.20
2019-05-07T04:54:16.856Z,11.80
2019-05-07T05:00:16.878Z,13.30
2019-05-07T05:06:16.902Z,14.40
2019-05-07T05:12:16.898Z,10.40
2019-05-07T05:18:16.954Z,11.60
2019-05-07T05:24:16.885Z,12.70
2019-05-07T05:30:16.903Z,11.70
2019-05-07T05:36:16.880Z,13.70
2019-05-07T05:42:16.904Z,10.50
2019-05-07T05:48:16.922Z,10.10
2019-05-07T05:54:17.022Z,10.20
2019-05-07T06:00:16.899Z,12.40
2019-05-07T06:06:16.892Z,14.50
2019-05-07T06:12:17.048Z,15.70
2019-05-07T06:18:21.078Z,10.70
2019-05-07T06:24:16.909Z,9.90
2019-05-07T06:30:17.959Z,10.30
2019-05-07T06:36:16.931Z,10.70
2019-05-07T06:42:17.030Z,13.40
2019-05-07T06:48:33.555Z,10.40
2019-05-07T06:54:16.916Z,9.80
2019-05-07T07:00:16.937Z,11.80
2019-05-07T07:06:16.990Z,10.90
2019-05-07T07:12:17.082Z,8.50
2019-05-07T07:18:16.951Z,7.60
2019-05-07T07:24:16.947Z,10.30
2019-05-07T07:30:17.068Z,8.50
2019-05-07T07:36:16.990Z,9.70
2019-05-07T07:42:16.929Z,8.40
2019-05-07T07:48:16.952Z,9.00
2019-05-07T07:54:16.977Z,10.40
2019-05-07T08:00:16.920Z,12.20
2019-05-07T08:06:16.978Z,11.60
2019-05-07T08:12:16.948Z,7.50
2019-05-07T08:18:16.957Z,9.00
2019-05-07T08:24:16.949Z,10.80
2019-05-07T08:30:16.973Z,9.40
2019-05-07T08:36:16.968Z,10.70
2019-05-07T08:42:16.945Z,10.10
2019-05-07T08:48:17.007Z,12.20
2019-05-07T08:54:16.987Z,10.30
2019-05-07T09:00:16.986Z,10.80
2019-05-07T09:06:17.000Z,8.10
2019-05-07T09:12:17.067Z,10.30
2019-05-07T09:18:17.040Z,9.50
2019-05-07T09:24:17.362Z,10.80
2019-05-07T09:30:17.127Z,10.90
2019-05-07T09:36:17.049Z,10.10
2019-05-07T09:42:17.099Z,9.40
2019-05-07T09:48:17.039Z,11.00
2019-05-07T09:54:17.112Z,9.50
2019-05-07T10:00:17.044Z,8.70
2019-05-07T10:06:17.052Z,7.10
2019-05-07T10:12:17.053Z,8.90
2019-05-07T10:18:17.066Z,7.00
2019-05-07T10:24:17.127Z,6.70
2019-05-07T10:30:17.375Z,8.60
2019-05-07T10:36:17.217Z,8.40
2019-05-07T10:42:17.096Z,9.00
2019-05-07T10:48:17.149Z,7.20
2019-05-07T10:54:17.098Z,6.80
2019-05-07T11:00:17.096Z,7.30
2019-05-07T11:06:17.110Z,8.50
2019-05-07T11:12:17.169Z,5.10
2019-05-07T11:18:17.139Z,4.70
2019-05-07T11:24:17.111Z,5.50
2019-05-07T11:30:17.141Z,6.80
2019-05-07T11:36:17.121Z,8.00
2019-05-07T11:42:17.155Z,7.20
2019-05-07T11:48:17.137Z,5.60
2019-05-07T11:54:17.124Z,7.60
2019-05-07T12:00:17.164Z,5.90
2019-05-07T12:06:17.138Z,7.00
2019-05-07T12:12:17.187Z,5.50
2019-05-07T12:18:17.168Z,4.40
2019-05-07T12:24:17.171Z,5.20
2019-05-07T12:30:18.179Z,6.10
2019-05-07T12:36:17.195Z,8.60
2019-05-07T12:42:17.425Z,5.70
2019-05-07T12:48:17.202Z,5.60
2019-05-07T12:54:17.212Z,8.50
2019-05-07T13:00:17.199Z,5.60
2019-05-07T13:06:17.237Z,5.10
2019-05-07T13:12:17.258Z,7.90
2019-05-07T13:18:17.221Z,9.30
2019-05-07T13:24:19.211Z,6.20
2019-05-07T13:30:17.233Z,5.60
2019-05-07T13:36:17.232Z,5.10
2019-05-07T13:42:17.226Z,7.00
2019-05-07T13:48:17.321Z,6.10
2019-05-07T13:54:17.255Z,6.70
2019-05-07T14:00:17.276Z,7.20
2019-05-07T14:06:17.267Z,5.60
2019-05-07T14:12:17.258Z,4.60
2019-05-07T14:18:17.287Z,6.10
2019-05-07T14:24:17.292Z,4.80
2019-05-07T14:30:17.290Z,5.80
2019-05-07T14:36:17.308Z,6.50
2019-05-07T14:42:17.319Z,6.60
2019-05-07T14:48:17.282Z,6.20
2019-05-07T14:54:18.391Z,6.40
2019-05-07T15:00:17.288Z,5.60
2019-05-07T15:06:17.325Z,9.50
2019-05-07T15:12:17.453Z,7.70
2019-05-07T15:18:17.324Z,5.00
2019-05-07T15:24:17.281Z,4.60
2019-05-07T15:30:17.285Z,8.00
2019-05-07T15:36:17.315Z,9.40
2019-05-07T15:42:17.320Z,7.90
2019-05-07T15:48:17.348Z,7.40
2019-05-07T15:54:17.322Z,6.40
2019-05-07T16:00:17.345Z,6.20
2019-05-07T16:06:17.343Z,5.50
2019-05-07T16:12:17.340Z,8.30
2019-05-07T16:18:17.368Z,6.70
2019-05-07T16:24:17.383Z,6.50
2019-05-07T16:30:17.358Z,5.20
2019-05-07T16:36:17.374Z,5.70
2019-05-07T16:42:17.372Z,8.90
2019-05-07T16:48:17.409Z,7.20
2019-05-07T16:54:17.388Z,6.50
2019-05-07T17:00:17.351Z,5.50
2019-05-07T17:06:17.360Z,6.60
2019-05-07T17:12:17.382Z,5.90
2019-05-07T17:18:17.408Z,6.70
2019-05-07T17:24:17.384Z,5.10
2019-05-07T17:30:17.394Z,5.40
2019-05-07T17:36:17.423Z,5.60
2019-05-07T17:42:17.478Z,4.90
2019-05-07T17:48:17.403Z,5.90
2019-05-07T17:54:17.461Z,7.70
2019-05-07T18:00:17.452Z,8.60
2019-05-07T18:06:17.424Z,10.80
2019-05-07T18:12:17.427Z,6.70
2019-05-07T18:18:17.422Z,6.00
2019-05-07T18:24:19.566Z,4.90
2019-05-07T18:30:17.508Z,5.30
2019-05-07T18:36:17.487Z,4.50
2019-05-07T18:42:17.450Z,9.00
2019-05-07T18:48:17.460Z,21.50
2019-05-07T18:54:27.901Z,28.00
2019-05-07T19:00:17.479Z,9.80
2019-05-07T19:06:17.467Z,7.50
2019-05-07T19:12:17.538Z,5.30
2019-05-07T19:18:17.553Z,14.20
2019-05-07T19:24:17.493Z,10.60
2019-05-07T19:30:17.474Z,7.80
2019-05-07T19:36:17.523Z,27.40
2019-05-07T19:42:17.481Z,9.50
2019-05-07T19:48:17.585Z,6.60
2019-05-07T19:54:17.561Z,6.10
2019-05-07T20:00:17.525Z,8.40
2019-05-07T20:06:17.525Z,7.50
2019-05-07T20:12:17.503Z,8.10
2019-05-07T20:18:17.510Z,8.00
2019-05-07T20:24:17.509Z,9.00
2019-05-07T20:30:17.534Z,5.90
2019-05-07T20:36:17.537Z,7.20
2019-05-07T20:42:17.610Z,8.50
2019-05-07T20:48:17.540Z,7.10
2019-05-07T20:54:17.615Z,6.90
2019-05-07T21:00:17.546Z,7.10
2019-05-07T21:06:17.587Z,9.60
2019-05-07T21:12:17.562Z,9.80
2019-05-07T21:18:17.617Z,10.20
2019-05-07T21:24:17.628Z,7.30
2019-05-07T21:30:17.743Z,9.30
2019-05-07T21:36:17.637Z,7.80
2019-05-07T21:42:17.556Z,6.70
2019-05-07T21:48:17.653Z,8.10
2019-05-07T21:54:17.599Z,8.10
2019-05-07T22:00:17.603Z,8.60
2019-05-07T22:06:17.613Z,8.20
2019-05-07T22:12:17.663Z,8.90
2019-05-07T22:18:17.627Z,7.90
2019-05-07T22:24:17.655Z,8.00
2019-05-07T22:30:17.575Z,7.20
2019-05-07T22:36:17.558Z,8.10
2019-05-07T22:42:17.618Z,7.20
2019-05-07T22:48:17.717Z,9.10
2019-05-07T22:54:17.609Z,7.40
2019-05-07T23:00:17.606Z,8.20
2019-05-07T23:06:17.618Z,6.80
2019-05-07T23:12:17.669Z,10.30
2019-05-07T23:18:18.649Z,10.10
2019-05-07T23:24:17.634Z,9.60
2019-05-07T23:30:17.693Z,13.40
2019-05-07T23:36:17.618Z,27.80
2019-05-07T23:42:17.615Z,27.90
2019-05-07T23:48:17.619Z,34.90
2019-05-07T23:54:17.644Z,21.70
